Time;durP1;ratioP1;P1;durP2;ratioP2;P2;SDS_P1;SDS_P2;PMS_P1;PMS_P2;Temp;Humidity;BMP_temperature;BMP_pressure;BME280_temperature;BME280_humidity;BME280_pressure;Samples;Min_cycle;Max_cycle;Signal;HPM_P1;HPM_P2
2022/08/10 00:00:50;;;;;;;5.37;3.50;;;26.20;31.00;;;;;;5057869;28;20440;-90
2022/08/10 00:03:17;;;;;;;3.80;3.50;;;26.20;31.10;;;;;;5090200;28;20442;-88
2022/08/10 00:05:44;;;;;;;3.80;3.50;;;26.10;30.50;;;;;;5089019;28;20556;-89
2022/08/10 00:08:11;;;;;;;6.63;4.40;;;26.00;31.20;;;;;;5071896;28;20894;-88
2022/08/10 00:10:38;;;;;;;8.30;5.17;;;26.00;31.60;;;;;;5074280;28;20541;-89
2022/08/10 00:13:05;;;;;;;7.10;4.80;;;26.00;31.40;;;;;;5071067;28;20443;-88
2022/08/10 00:15:33;;;;;;;7.27;5.43;;;26.00;31.80;;;;;;5069089;28;20462;-88
2022/08/10 00:18:00;;;;;;;7.80;5.13;;;25.80;32.00;;;;;;5092167;28;20881;-87
2022/08/10 00:20:27;;;;;;;5.90;5.30;;;25.80;32.10;;;;;;5072064;28;20451;-89
2022/08/10 00:22:54;;;;;;;5.23;4.47;;;25.80;32.20;;;;;;5063592;28;21088;-89
2022/08/10 00:25:21;;;;;;;6.00;4.73;;;25.90;32.20;;;;;;5081846;28;20455;-88
2022/08/10 00:27:48;;;;;;;5.43;4.67;;;25.90;32.00;;;;;;5072043;28;20477;-88
2022/08/10 00:30:15;;;;;;;4.93;4.33;;;25.90;31.70;;;;;;5071017;28;20454;-88
2022/08/10 00:32:43;;;;;;;5.33;4.83;;;25.90;31.80;;;;;;5074297;28;21165;-88
2022/08/10 00:35:10;;;;;;;6.63;4.87;;;25.90;31.70;;;;;;5072463;28;20467;-89
2022/08/10 00:37:37;;;;;;;3.63;3.33;;;25.90;31.60;;;;;;5072602;28;20473;-89
2022/08/10 00:40:05;;;;;;;5.33;4.83;;;25.80;31.30;;;;;;5074702;28;20464;-89
2022/08/10 00:42:32;;;;;;;4.93;4.00;;;25.80;31.40;;;;;;5088143;28;20448;-88
2022/08/10 00:44:59;;;;;;;5.27;4.53;;;25.80;31.40;;;;;;5087800;28;20440;-89
2022/08/10 00:47:26;;;;;;;4.93;3.90;;;25.80;31.50;;;;;;5047809;28;20544;-88
2022/08/10 00:49:55;;;;;;;4.53;4.13;;;25.70;31.60;;;;;;5069588;28;20959;-88
2022/08/10 00:52:24;;;;;;;6.97;3.60;;;25.70;31.70;;;;;;5070991;28;21221;-87
2022/08/10 00:54:51;;;;;;;6.83;3.30;;;25.60;31.80;;;;;;5084155;28;20485;-87
2022/08/10 00:57:19;;;;;;;4.97;3.57;;;25.60;31.70;;;;;;5069228;28;20462;-88
2022/08/10 00:59:46;;;;;;;5.10;4.17;;;25.60;31.70;;;;;;5069728;28;20459;-87
2022/08/10 01:02:13;;;;;;;7.50;4.57;;;25.60;32.00;;;;;;5067893;28;20455;-89
2022/08/10 01:04:40;;;;;;;4.70;3.57;;;25.60;31.90;;;;;;5054939;28;20513;-88
2022/08/10 01:07:19;;;;;;;6.00;4.80;;;25.50;32.30;;;;;;5072040;28;20439;-88
2022/08/10 01:09:55;;;;;;;6.27;4.90;;;25.50;32.50;;;;;;5070810;28;20439;-88
2022/08/10 01:12:31;;;;;;;5.30;4.17;;;25.40;32.60;;;;;;5077671;28;20530;-88
2022/08/10 01:15:04;;;;;;;4.23;3.93;;;25.40;31.90;;;;;;5071229;28;20466;-88
2022/08/10 01:17:39;;;;;;;4.00;3.60;;;25.30;32.40;;;;;;5071835;28;20488;-87
2022/08/10 01:20:35;;;;;;;4.77;3.40;;;25.20;32.70;;;;;;5070147;28;20453;-89
2022/08/10 01:23:25;;;;;;;4.67;3.30;;;25.20;32.90;;;;;;5072423;28;20444;-89
2022/08/10 01:26:15;;;;;;;5.20;3.80;;;25.20;33.20;;;;;;5080717;28;20444;-89
2022/08/10 01:28:52;;;;;;;7.00;3.73;;;25.10;33.20;;;;;;5073537;28;21002;-88
2022/08/10 01:31:27;;;;;;;4.53;4.23;;;25.10;33.20;;;;;;5090831;28;20451;-88
2022/08/10 01:33:58;;;;;;;4.40;4.10;;;25.00;33.10;;;;;;5081023;28;20475;-88
2022/08/10 01:36:29;;;;;;;5.10;4.60;;;25.00;33.80;;;;;;5072560;28;20457;-88
2022/08/10 01:39:01;;;;;;;4.50;4.10;;;24.90;33.50;;;;;;5079698;28;20524;-88
2022/08/10 01:41:31;;;;;;;7.50;4.17;;;24.90;33.60;;;;;;5071088;28;20452;-89
2022/08/10 01:44:03;;;;;;;3.83;3.53;;;24.90;34.00;;;;;;5072375;28;20542;-87
2022/08/10 01:48:27;;;;;;;5.63;4.23;;;24.70;33.60;;;;;;5056809;28;20592;-88
2022/08/10 01:49:49;;;;;;;4.70;3.77;;;24.60;33.90;;;;;;5072313;28;20460;-86
2022/08/10 01:52:20;;;;;;;4.90;4.40;;;24.60;34.10;;;;;;5059104;28;21067;-88
2022/08/10 01:54:49;;;;;;;4.30;4.00;;;24.60;34.00;;;;;;5079512;28;20452;-89
2022/08/10 01:57:17;;;;;;;5.37;4.80;;;24.60;33.90;;;;;;5067334;28;20439;-88
2022/08/10 01:59:46;;;;;;;4.33;3.93;;;24.70;33.90;;;;;;5059977;28;20451;-88
2022/08/10 02:02:16;;;;;;;4.00;3.70;;;24.60;33.90;;;;;;5071147;28;20463;-90
2022/08/10 02:04:47;;;;;;;6.80;4.73;;;24.60;33.60;;;;;;5089685;28;20442;-89
2022/08/10 02:07:19;;;;;;;4.83;3.80;;;24.60;33.60;;;;;;5053846;28;20447;-88
2022/08/10 02:09:51;;;;;;;4.90;3.90;;;24.60;33.90;;;;;;5057742;28;20447;-89
2022/08/10 02:12:22;;;;;;;4.40;3.73;;;24.60;34.10;;;;;;5073020;28;20982;-88
2022/08/10 02:14:53;;;;;;;4.03;3.73;;;24.50;34.30;;;;;;5093311;28;20450;-87
2022/08/10 02:17:26;;;;;;;4.20;3.90;;;24.50;34.30;;;;;;5059315;28;20466;-89
2022/08/10 02:19:56;;;;;;;4.97;3.90;;;24.50;34.60;;;;;;5074221;28;20505;-88
2022/08/10 02:22:25;;;;;;;7.23;4.27;;;24.50;35.30;;;;;;5075159;28;20506;-88
2022/08/10 02:24:53;;;;;;;6.73;4.30;;;24.50;34.80;;;;;;5051765;28;20474;-88
2022/08/10 02:27:23;;;;;;;6.23;3.77;;;24.40;34.70;;;;;;5076279;28;20471;-89
2022/08/10 02:29:52;;;;;;;6.27;4.33;;;24.30;35.40;;;;;;5066680;28;20470;-86
2022/08/10 02:32:22;;;;;;;4.43;4.13;;;24.30;35.40;;;;;;5058091;28;20472;-89
2022/08/10 02:34:51;;;;;;;4.97;4.23;;;24.20;35.20;;;;;;5074527;28;21169;-88
2022/08/10 02:37:22;;;;;;;4.67;4.27;;;24.10;35.50;;;;;;5074859;28;20490;-89
2022/08/10 02:39:49;;;;;;;4.00;3.70;;;24.10;35.40;;;;;;5043417;28;20451;-89
2022/08/10 02:42:23;;;;;;;4.43;4.13;;;24.10;35.40;;;;;;5080106;28;20482;-88
2022/08/10 02:44:55;;;;;;;5.80;4.40;;;24.10;35.60;;;;;;5095386;28;20965;-89
2022/08/10 02:47:28;;;;;;;4.80;4.47;;;24.10;35.40;;;;;;5084372;28;20506;-89
2022/08/10 02:50:02;;;;;;;5.13;4.67;;;24.10;35.70;;;;;;5045352;28;20448;-88
2022/08/10 02:52:38;;;;;;;4.67;4.23;;;24.10;35.60;;;;;;5067396;28;20853;-88
2022/08/10 02:55:13;;;;;;;6.40;4.90;;;24.10;35.30;;;;;;5056880;28;20462;-88
2022/08/10 02:57:43;;;;;;;13.30;4.67;;;24.10;35.60;;;;;;5063280;28;20840;-88
2022/08/10 03:06:56;;;;;;;5.60;4.60;;;23.90;35.70;;;;;;5074482;28;20451;-89
2022/08/10 03:09:25;;;;;;;6.00;4.80;;;23.90;35.60;;;;;;5072460;28;20477;-88
2022/08/10 03:11:55;;;;;;;4.97;4.10;;;23.80;35.60;;;;;;5091409;28;20462;-89
2022/08/10 03:14:22;;;;;;;4.87;4.47;;;23.70;35.60;;;;;;5083905;28;20437;-88
2022/08/10 03:16:50;;;;;;;4.90;4.60;;;23.70;35.80;;;;;;5095865;28;20480;-88
2022/08/10 03:19:20;;;;;;;5.17;4.73;;;23.70;36.00;;;;;;5073550;28;20472;-88
2022/08/10 03:21:49;;;;;;;8.93;5.40;;;23.70;36.20;;;;;;5049042;28;20454;-88
2022/08/10 03:24:21;;;;;;;4.87;4.37;;;23.60;35.80;;;;;;5088397;28;20455;-88
2022/08/10 03:26:50;;;;;;;5.53;4.60;;;23.60;36.20;;;;;;5075915;28;20448;-88
2022/08/10 03:29:18;;;;;;;4.90;4.50;;;23.60;36.70;;;;;;5071195;28;20531;-88
2022/08/10 03:31:46;;;;;;;5.10;4.70;;;23.50;36.60;;;;;;5077398;28;20436;-87
2022/08/10 03:34:15;;;;;;;6.53;5.07;;;23.50;36.70;;;;;;5091072;28;20504;-88
2022/08/10 03:36:44;;;;;;;6.33;5.30;;;23.50;37.30;;;;;;5059502;28;20469;-88
2022/08/10 03:39:11;;;;;;;4.87;4.37;;;23.50;37.60;;;;;;5056150;28;20460;-89
2022/08/10 03:41:42;;;;;;;5.50;4.83;;;23.50;37.40;;;;;;5065434;28;20726;-87
2022/08/10 03:44:12;;;;;;;5.20;4.70;;;23.40;37.00;;;;;;5072118;28;20930;-86
2022/08/10 03:46:42;;;;;;;6.00;5.00;;;23.40;36.90;;;;;;5075358;28;20484;-89
2022/08/10 03:53:45;;;;;;;8.20;5.20;;;23.30;37.30;;;;;;5081963;28;20434;-88
2022/08/10 03:56:12;;;;;;;6.27;5.03;;;23.20;37.30;;;;;;5041104;28;20570;-89
2022/08/10 03:58:39;;;;;;;6.10;5.50;;;23.20;37.50;;;;;;5075295;28;21101;-88
2022/08/10 04:01:08;;;;;;;5.10;4.70;;;23.20;37.70;;;;;;5049635;28;20450;-88
2022/08/10 04:03:35;;;;;;;6.97;4.63;;;23.20;37.80;;;;;;5070976;28;20451;-89
2022/08/10 04:06:02;;;;;;;8.03;5.90;;;23.20;37.80;;;;;;5063194;28;20444;-89
2022/08/10 04:08:29;;;;;;;6.40;4.77;;;23.10;37.90;;;;;;5090986;28;20474;-89
2022/08/10 04:10:57;;;;;;;5.10;4.70;;;23.10;38.00;;;;;;5072962;28;20462;-86
2022/08/10 04:13:24;;;;;;;6.23;5.30;;;23.10;38.00;;;;;;5073288;28;20456;-89
2022/08/10 04:15:51;;;;;;;5.10;4.60;;;23.10;38.00;;;;;;5090658;28;20608;-88
2022/08/10 04:18:18;;;;;;;5.23;4.73;;;23.10;38.20;;;;;;5081461;28;21041;-89
2022/08/10 04:20:49;;;;;;;6.43;5.30;;;23.10;38.10;;;;;;5056181;28;20463;-88
2022/08/10 04:27:25;;;;;;;6.70;5.57;;;23.00;38.70;;;;;;5090659;28;20434;-88
2022/08/10 04:29:54;;;;;;;5.90;5.30;;;22.90;39.00;;;;;;5072261;28;20443;-88
2022/08/10 04:32:23;;;;;;;6.57;5.80;;;22.90;39.40;;;;;;5068661;28;20542;-89
2022/08/10 04:34:52;;;;;;;6.53;5.93;;;22.90;39.50;;;;;;5055998;28;20534;-88
2022/08/10 04:37:22;;;;;;;6.43;5.83;;;22.90;39.60;;;;;;5073392;28;20826;-89
2022/08/10 04:39:49;;;;;;;6.47;5.87;;;22.90;40.30;;;;;;5091512;28;20440;-88
2022/08/10 04:42:16;;;;;;;6.90;6.27;;;22.80;40.80;;;;;;5067161;28;20458;-88
2022/08/10 04:44:45;;;;;;;6.40;5.53;;;22.80;41.40;;;;;;5091222;28;21377;-87
2022/08/10 04:47:12;;;;;;;8.03;6.23;;;22.90;42.00;;;;;;5073013;28;20527;-89
2022/08/10 04:49:39;;;;;;;6.80;6.20;;;22.80;42.10;;;;;;5070343;28;20442;-88
2022/08/10 04:52:06;;;;;;;7.63;6.03;;;22.80;42.10;;;;;;5074889;28;20459;-87
2022/08/10 04:54:33;;;;;;;6.63;5.97;;;22.80;42.30;;;;;;5081192;28;20468;-88
2022/08/10 04:57:00;;;;;;;7.53;6.13;;;22.80;42.70;;;;;;5050938;28;20467;-88
2022/08/10 04:59:27;;;;;;;7.00;6.00;;;22.80;42.70;;;;;;5037278;28;20579;-89
2022/08/10 05:01:55;;;;;;;9.23;6.83;;;22.80;43.00;;;;;;5088363;28;20485;-89
2022/08/10 05:04:22;;;;;;;6.50;6.00;;;22.80;43.20;;;;;;5069728;28;20452;-89
2022/08/10 05:06:49;;;;;;;6.50;5.80;;;22.80;43.30;;;;;;5087006;28;20474;-89
2022/08/10 05:09:16;;;;;;;8.30;6.30;;;22.80;43.40;;;;;;5068858;28;20493;-90
2022/08/10 05:11:43;;;;;;;11.30;5.60;;;22.80;43.40;;;;;;5076802;28;20443;-89
2022/08/10 05:14:10;;;;;;;6.27;5.63;;;22.80;43.00;;;;;;5060602;28;20580;-88
2022/08/10 05:16:37;;;;;;;5.37;4.97;;;22.80;42.80;;;;;;5050867;28;20466;-88
2022/08/10 05:19:05;;;;;;;6.10;5.70;;;22.80;43.00;;;;;;5048885;28;20466;-89
2022/08/10 05:21:32;;;;;;;7.13;6.43;;;22.80;43.00;;;;;;5084225;28;20444;-88
2022/08/10 05:24:03;;;;;;;10.43;6.70;;;22.80;42.90;;;;;;5067185;28;20471;-89
2022/08/10 05:26:30;;;;;;;8.50;5.93;;;22.80;43.00;;;;;;5077093;28;20457;-88
2022/08/10 05:36:48;;;;;;;13.10;7.93;;;22.70;44.20;;;;;;5067513;28;20463;-91
2022/08/10 05:39:15;;;;;;;8.10;6.20;;;22.70;44.40;;;;;;5057579;28;20467;-91
2022/08/10 05:41:42;;;;;;;10.33;7.33;;;22.70;44.30;;;;;;5060956;28;20452;-90
2022/08/10 05:44:10;;;;;;;8.87;6.53;;;22.70;44.70;;;;;;5080113;28;20453;-90
2022/08/10 05:46:37;;;;;;;11.13;6.80;;;22.80;44.60;;;;;;5078477;28;20457;-91
2022/08/10 05:49:03;;;;;;;7.30;6.57;;;22.80;44.80;;;;;;5072398;28;20488;-91
2022/08/10 05:56:06;;;;;;;7.40;6.67;;;22.80;44.50;;;;;;5064043;28;20422;-90
2022/08/10 05:58:34;;;;;;;7.47;6.77;;;22.90;44.80;;;;;;5081733;28;21089;-91
2022/08/10 06:01:04;;;;;;;9.97;5.83;;;22.90;45.00;;;;;;5078067;28;20473;-90
2022/08/10 06:03:35;;;;;;;8.00;7.07;;;22.90;44.90;;;;;;5084114;28;20438;-90
2022/08/10 06:06:06;;;;;;;8.40;6.57;;;23.00;44.70;;;;;;5086540;28;20442;-91
2022/08/10 06:08:36;;;;;;;12.03;6.03;;;23.00;44.00;;;;;;5064560;28;20582;-91
2022/08/10 06:11:06;;;;;;;6.83;6.00;;;23.10;43.80;;;;;;5077468;28;20448;-91
2022/08/10 06:16:20;;;;;;;18.83;5.97;;;23.20;42.90;;;;;;5097434;28;20550;-89
2022/08/10 06:22:54;;;;;;;21.03;6.90;;;23.30;41.80;;;;;;5067885;28;20957;-91
2022/08/10 06:25:22;;;;;;;14.03;5.70;;;23.30;40.90;;;;;;5067308;28;20440;-91
2022/08/10 06:27:51;;;;;;;9.40;6.57;;;23.40;40.50;;;;;;5050615;28;20586;-90
2022/08/10 06:30:19;;;;;;;9.60;5.50;;;23.40;40.20;;;;;;5080126;28;20447;-90
2022/08/10 06:32:47;;;;;;;21.80;6.53;;;23.50;40.40;;;;;;5076403;28;20503;-90
2022/08/10 06:35:16;;;;;;;10.80;5.40;;;23.60;40.20;;;;;;5080002;28;20995;-91
2022/08/10 06:37:45;;;;;;;21.17;6.20;;;23.70;40.20;;;;;;5068658;28;20561;-89
2022/08/10 06:40:13;;;;;;;18.27;5.83;;;23.80;40.10;;;;;;5077804;28;20442;-90
2022/08/10 06:42:44;;;;;;;20.20;6.93;;;23.80;39.00;;;;;;5098698;28;20450;-89
2022/08/10 06:45:16;;;;;;;18.30;5.80;;;23.90;39.50;;;;;;5078114;28;20443;-89
2022/08/10 06:47:46;;;;;;;8.53;5.00;;;24.10;39.60;;;;;;5063654;28;20562;-90
2022/08/10 06:50:16;;;;;;;14.87;5.70;;;24.30;39.30;;;;;;5085329;28;20484;-91
2022/08/10 06:52:46;;;;;;;10.37;4.83;;;24.40;39.50;;;;;;5084210;28;20447;-91
2022/08/10 06:55:14;;;;;;;10.30;4.77;;;24.50;38.90;;;;;;5074598;28;20454;-88
2022/08/10 06:57:43;;;;;;;8.67;6.00;;;24.60;38.20;;;;;;5078906;28;21000;-89
2022/08/10 07:00:14;;;;;;;6.87;5.23;;;24.80;38.60;;;;;;5076717;28;20458;-89
2022/08/10 07:02:46;;;;;;;13.90;4.80;;;25.00;38.60;;;;;;5055420;28;20455;-89
2022/08/10 07:05:19;;;;;;;5.90;4.73;;;25.10;38.00;;;;;;5054939;28;20739;-89
2022/08/10 07:07:48;;;;;;;14.97;4.97;;;25.10;38.00;;;;;;5067396;28;20494;-89
2022/08/10 07:10:19;;;;;;;18.20;5.00;;;25.10;37.30;;;;;;5060351;28;20493;-89
2022/08/10 07:12:47;;;;;;;7.10;4.50;;;25.20;37.40;;;;;;5046458;28;20730;-88
2022/08/10 07:15:17;;;;;;;12.17;4.93;;;25.50;36.90;;;;;;5094636;28;20458;-89
2022/08/10 07:17:45;;;;;;;12.53;5.20;;;25.80;37.00;;;;;;5078269;28;20502;-89
2022/08/10 07:20:17;;;;;;;6.37;4.40;;;26.00;37.00;;;;;;5051130;28;21066;-88
2022/08/10 07:22:47;;;;;;;14.13;4.53;;;26.20;37.40;;;;;;5093993;28;20456;-88
2022/08/10 07:25:19;;;;;;;16.50;5.20;;;26.30;36.60;;;;;;5094078;28;20440;-89
2022/08/10 07:27:49;;;;;;;17.17;4.87;;;26.50;37.00;;;;;;5064468;28;20454;-89
2022/08/10 07:30:18;;;;;;;7.13;3.97;;;26.50;36.20;;;;;;5064865;28;20444;-89
2022/08/10 07:32:49;;;;;;;18.63;5.10;;;26.60;36.00;;;;;;5092909;28;20443;-88
2022/08/10 07:35:18;;;;;;;16.63;5.50;;;26.70;35.40;;;;;;5060043;28;21023;-89
2022/08/10 07:37:48;;;;;;;9.93;4.40;;;26.80;35.00;;;;;;5094896;28;20483;-88
2022/08/10 07:40:17;;;;;;;9.93;4.27;;;26.80;34.50;;;;;;5084617;28;20439;-89
2022/08/10 07:42:47;;;;;;;7.03;3.93;;;27.00;35.60;;;;;;5083045;28;20440;-89
2022/08/10 07:45:14;;;;;;;8.77;4.33;;;27.10;34.50;;;;;;5060901;28;20458;-89
2022/08/10 07:47:46;;;;;;;6.40;4.27;;;27.20;34.50;;;;;;5083433;28;20467;-89
2022/08/10 07:50:16;;;;;;;6.60;3.60;;;27.30;33.90;;;;;;5041705;28;20962;-89
2022/08/10 07:52:45;;;;;;;4.60;3.63;;;27.40;33.30;;;;;;5067668;28;20444;-89
2022/08/10 07:55:16;;;;;;;6.70;3.83;;;27.50;32.60;;;;;;5074379;28;20448;-89
2022/08/10 07:57:46;;;;;;;5.20;3.97;;;27.50;33.10;;;;;;5060510;28;20483;-88
2022/08/10 08:00:15;;;;;;;4.00;3.60;;;27.60;33.20;;;;;;5075112;28;20518;-89
2022/08/10 08:02:49;;;;;;;3.87;3.57;;;27.70;32.80;;;;;;5058717;28;20455;-88
2022/08/10 08:05:19;;;;;;;3.63;2.80;;;27.90;32.90;;;;;;5075938;28;20985;-88
2022/08/10 08:07:48;;;;;;;5.13;2.70;;;28.00;31.70;;;;;;5094707;28;20521;-89
2022/08/10 08:10:17;;;;;;;3.60;2.43;;;28.10;31.50;;;;;;5079689;28;20483;-90
2022/08/10 08:12:45;;;;;;;3.07;2.60;;;28.10;30.40;;;;;;5092657;28;20949;-88
2022/08/10 08:15:16;;;;;;;3.07;2.80;;;28.20;30.70;;;;;;5089696;28;20522;-87
2022/08/10 08:17:46;;;;;;;2.63;2.43;;;28.30;30.00;;;;;;5056879;28;20486;-88
2022/08/10 08:20:16;;;;;;;4.60;2.37;;;28.50;30.40;;;;;;5046651;28;20460;-88
2022/08/10 08:22:44;;;;;;;2.53;2.33;;;28.50;29.90;;;;;;5071390;28;20442;-88
2022/08/10 08:25:12;;;;;;;2.70;2.50;;;28.60;30.00;;;;;;5075774;28;20443;-89
2022/08/10 08:27:41;;;;;;;2.73;2.50;;;28.70;29.60;;;;;;5042860;28;20566;-89
2022/08/10 08:30:09;;;;;;;4.20;3.20;;;28.70;29.40;;;;;;5074209;28;20455;-89
2022/08/10 08:32:38;;;;;;;3.40;2.83;;;28.90;29.30;;;;;;5074872;28;20554;-89
2022/08/10 08:35:09;;;;;;;2.83;2.53;;;29.00;29.10;;;;;;5072172;28;21012;-88
2022/08/10 08:37:39;;;;;;;4.33;2.60;;;29.20;28.90;;;;;;5077331;28;20587;-89
2022/08/10 08:40:11;;;;;;;2.97;2.77;;;29.30;29.20;;;;;;5058857;28;20440;-88
2022/08/10 08:47:12;;;;;;;3.90;2.73;;;29.60;28.40;;;;;;5075176;28;21042;-88
2022/08/10 08:50:05;;;;;;;2.90;2.50;;;29.90;28.40;;;;;;5090812;28;20462;-89
2022/08/10 08:52:48;;;;;;;2.37;2.17;;;29.90;28.20;;;;;;5070295;28;20514;-88
2022/08/10 08:55:25;;;;;;;7.60;2.50;;;30.00;28.10;;;;;;5089182;28;20443;-89
2022/08/10 08:58:03;;;;;;;5.00;3.10;;;30.10;27.70;;;;;;5093006;28;20523;-88
2022/08/10 09:00:40;;;;;;;2.80;2.60;;;29.90;27.90;;;;;;5071531;28;20673;-89
2022/08/10 09:03:50;;;;;;;6.47;2.40;;;30.10;27.90;;;;;;5093563;28;20444;-89
2022/08/10 09:06:33;;;;;;;3.70;2.70;;;30.30;27.90;;;;;;5069973;28;21242;-87
2022/08/10 09:09:43;;;;;;;2.30;2.20;;;30.50;27.40;;;;;;5071753;28;20473;-88
2022/08/10 09:19:22;;;;;;;3.17;2.87;;;30.30;26.90;;;;;;5061875;28;20511;-91
2022/08/10 09:22:00;;;;;;;7.10;3.00;;;30.40;27.80;;;;;;5075883;28;20530;-87
2022/08/10 09:24:36;;;;;;;3.13;2.83;;;30.70;26.60;;;;;;5078595;28;21175;-88
2022/08/10 09:27:14;;;;;;;2.70;2.50;;;31.00;26.00;;;;;;5049646;28;20446;-88
2022/08/10 09:29:46;;;;;;;3.90;2.53;;;30.80;26.10;;;;;;5094592;28;20549;-88
2022/08/10 09:32:23;;;;;;;2.53;2.33;;;31.00;26.40;;;;;;5094978;28;20685;-88
2022/08/10 09:35:01;;;;;;;5.30;2.77;;;31.30;25.60;;;;;;5092650;28;20567;-86
2022/08/10 09:37:32;;;;;;;4.40;2.70;;;31.30;25.20;;;;;;5057440;28;20478;-87
2022/08/10 09:40:11;;;;;;;2.67;2.47;;;31.70;25.20;;;;;;5057671;28;20451;-87
2022/08/10 09:42:44;;;;;;;3.13;2.53;;;32.00;24.70;;;;;;5064460;28;20832;-88
2022/08/10 09:45:19;;;;;;;2.97;2.77;;;32.20;24.90;;;;;;5091692;28;20566;-87
2022/08/10 09:47:57;;;;;;;3.10;2.80;;;32.30;24.70;;;;;;5090905;28;20996;-88
2022/08/10 09:50:33;;;;;;;4.53;3.37;;;32.20;24.60;;;;;;5074010;28;20526;-88
2022/08/10 09:53:08;;;;;;;2.97;2.77;;;32.10;24.20;;;;;;5073548;28;20441;-88
2022/08/10 09:55:46;;;;;;;2.70;2.37;;;32.40;23.90;;;;;;5069323;28;20455;-88
2022/08/10 09:58:30;;;;;;;7.73;2.83;;;32.60;23.90;;;;;;5076487;28;20479;-89
2022/08/10 10:01:05;;;;;;;2.63;2.17;;;32.70;23.10;;;;;;5060322;28;20523;-87
2022/08/10 10:03:41;;;;;;;3.20;2.40;;;33.00;23.50;;;;;;5091429;28;20442;-87
2022/08/10 10:06:13;;;;;;;3.83;2.50;;;33.00;23.90;;;;;;5090098;28;20446;-85
2022/08/10 10:08:45;;;;;;;2.50;2.40;;;32.30;23.30;;;;;;5072476;28;20481;-88
2022/08/10 10:16:10;;;;;;;3.17;2.83;;;32.40;23.30;;;;;;5089550;28;20434;-86
2022/08/10 10:18:44;;;;;;;3.43;2.80;;;32.90;23.00;;;;;;5059798;28;20482;-87
2022/08/10 10:21:18;;;;;;;5.83;2.77;;;33.10;22.30;;;;;;5051606;28;21000;-88
2022/08/10 10:24:06;;;;;;;4.20;2.40;;;33.40;22.00;;;;;;5066429;28;20450;-87
2022/08/10 10:26:47;;;;;;;5.40;2.53;;;33.70;21.10;;;;;;5068770;28;21106;-87
2022/08/10 10:29:28;;;;;;;3.60;2.30;;;33.90;20.20;;;;;;5092972;28;20616;-87
2022/08/10 10:31:58;;;;;;;6.17;2.63;;;33.90;20.10;;;;;;5091757;28;20452;-88
2022/08/10 10:34:34;;;;;;;4.07;3.67;;;33.60;20.60;;;;;;5089766;28;20439;-86
2022/08/10 10:37:05;;;;;;;2.47;2.27;;;33.40;20.70;;;;;;5082957;28;20438;-86
2022/08/10 10:39:33;;;;;;;2.90;2.60;;;33.40;21.30;;;;;;5091306;28;21047;-87
2022/08/10 10:42:11;;;;;;;5.00;3.07;;;33.60;20.80;;;;;;5054792;28;20939;-87
2022/08/10 10:44:48;;;;;;;2.37;1.90;;;33.50;21.20;;;;;;5073624;28;20450;-87
2022/08/10 10:47:33;;;;;;;2.60;2.40;;;33.10;21.10;;;;;;5082681;28;20786;-87
2022/08/10 10:50:10;;;;;;;3.00;2.50;;;33.00;20.80;;;;;;5089066;28;20438;-86
2022/08/10 10:52:44;;;;;;;3.33;3.10;;;33.30;20.80;;;;;;5081325;28;20451;-87
2022/08/10 10:55:17;;;;;;;2.50;2.30;;;33.40;21.00;;;;;;5090300;28;20447;-87
2022/08/10 10:57:54;;;;;;;2.63;2.43;;;33.90;20.70;;;;;;5074490;28;20831;-86
2022/08/10 11:00:25;;;;;;;2.50;2.30;;;33.80;20.20;;;;;;5079613;28;20530;-88
2022/08/10 11:03:21;;;;;;;4.33;2.70;;;33.50;20.50;;;;;;5090326;28;20877;-88
2022/08/10 11:06:00;;;;;;;2.67;2.47;;;33.60;20.30;;;;;;5088923;28;20451;-87
2022/08/10 11:08:35;;;;;;;3.10;2.90;;;33.90;20.60;;;;;;5071707;28;20500;-87
2022/08/10 11:11:07;;;;;;;2.23;2.13;;;34.30;20.50;;;;;;5087737;28;20496;-85
2022/08/10 11:13:40;;;;;;;2.93;2.60;;;34.50;19.60;;;;;;5089592;28;20444;-88
2022/08/10 11:16:16;;;;;;;2.20;2.07;;;34.60;18.80;;;;;;5069165;28;20503;-86
2022/08/10 11:18:55;;;;;;;4.60;2.33;;;34.60;19.50;;;;;;5080778;28;20997;-85
2022/08/10 11:21:49;;;;;;;2.50;2.40;;;34.70;19.30;;;;;;5085329;28;20447;-85
2022/08/10 11:24:23;;;;;;;2.63;2.43;;;35.10;18.60;;;;;;5053601;28;20459;-87
2022/08/10 11:26:55;;;;;;;4.43;2.30;;;35.20;18.60;;;;;;5088633;28;20453;-87
2022/08/10 11:29:32;;;;;;;3.80;2.20;;;35.40;18.70;;;;;;5069956;28;20469;-87
2022/08/10 11:32:03;;;;;;;3.10;2.20;;;35.50;18.50;;;;;;5072039;28;20546;-86
2022/08/10 11:34:37;;;;;;;7.47;2.43;;;35.60;18.40;;;;;;5070757;28;20438;-88
2022/08/10 11:37:15;;;;;;;5.60;2.97;;;35.50;18.10;;;;;;5089642;28;20892;-87
2022/08/10 11:39:50;;;;;;;7.07;2.57;;;35.40;18.40;;;;;;5069785;28;20467;-87
2022/08/10 11:42:30;;;;;;;2.50;2.23;;;35.20;18.20;;;;;;5088702;28;20454;-87
2022/08/10 11:45:02;;;;;;;2.60;2.40;;;35.50;19.20;;;;;;5087990;28;20438;-87
2022/08/10 11:47:37;;;;;;;7.23;2.83;;;35.70;18.60;;;;;;5057673;28;20461;-88
2022/08/10 11:50:11;;;;;;;4.77;2.40;;;35.70;18.00;;;;;;5079532;28;20455;-88
2022/08/10 11:52:46;;;;;;;3.40;2.10;;;35.60;18.00;;;;;;5070692;28;20509;-87
2022/08/10 11:55:18;;;;;;;3.10;2.57;;;35.60;18.60;;;;;;5068225;28;20447;-87
2022/08/10 11:57:47;;;;;;;2.53;2.40;;;35.60;18.60;;;;;;5086049;28;20477;-87
2022/08/10 12:00:14;;;;;;;3.30;2.17;;;35.50;18.40;;;;;;5087519;28;20491;-87
2022/08/10 12:02:46;;;;;;;3.93;2.13;;;35.60;18.40;;;;;;5091330;28;20958;-86
2022/08/10 12:05:17;;;;;;;2.73;2.53;;;35.40;17.90;;;;;;5085836;28;20453;-86
2022/08/10 12:07:49;;;;;;;5.83;2.20;;;35.20;18.40;;;;;;5067245;28;20533;-88
2022/08/10 12:10:16;;;;;;;7.40;2.43;;;35.30;18.70;;;;;;5086870;28;20455;-87
2022/08/10 12:12:49;;;;;;;2.67;2.27;;;35.20;18.30;;;;;;5090296;28;20793;-88
2022/08/10 12:15:23;;;;;;;3.70;2.77;;;35.50;19.00;;;;;;5085439;28;20444;-88
2022/08/10 12:17:54;;;;;;;3.40;2.57;;;35.80;18.60;;;;;;5086957;28;20983;-87
2022/08/10 12:20:28;;;;;;;4.17;2.27;;;35.80;18.20;;;;;;5089214;28;20461;-88
2022/08/10 12:22:58;;;;;;;5.20;2.47;;;35.60;18.30;;;;;;5071742;28;20453;-87
2022/08/10 12:25:31;;;;;;;2.70;2.47;;;35.70;18.10;;;;;;5071296;28;20440;-88
2022/08/10 12:32:11;;;;;;;2.83;2.63;;;35.80;18.50;;;;;;5070289;28;20411;-87
2022/08/10 12:34:44;;;;;;;2.83;2.53;;;35.90;18.30;;;;;;5088519;28;20451;-87
2022/08/10 12:37:20;;;;;;;4.63;2.30;;;36.20;18.00;;;;;;5078431;28;20454;-87
2022/08/10 12:40:04;;;;;;;2.50;2.30;;;36.40;17.90;;;;;;5069087;28;20569;-88
2022/08/10 12:42:42;;;;;;;2.50;2.30;;;36.30;17.50;;;;;;5069493;28;20450;-87
2022/08/10 12:45:18;;;;;;;2.50;2.20;;;35.90;18.00;;;;;;5089213;28;20445;-85
2022/08/10 12:47:52;;;;;;;2.63;2.37;;;36.20;17.90;;;;;;5072142;28;20471;-87
2022/08/10 12:50:24;;;;;;;4.03;2.47;;;36.30;17.30;;;;;;5061250;28;20435;-88
2022/08/10 12:52:57;;;;;;;2.70;2.50;;;36.20;17.50;;;;;;5071187;28;20450;-87
2022/08/10 12:55:28;;;;;;;2.63;2.43;;;36.20;17.50;;;;;;5068914;28;20562;-86
2022/08/10 12:57:56;;;;;;;2.57;2.37;;;36.50;17.50;;;;;;5089454;28;20608;-88
2022/08/10 13:00:31;;;;;;;2.10;1.90;;;36.50;17.90;;;;;;5069640;28;20563;-87
2022/08/10 13:03:00;;;;;;;2.47;2.27;;;36.60;17.40;;;;;;5090597;28;20547;-87
2022/08/10 13:05:29;;;;;;;2.50;2.37;;;36.20;17.60;;;;;;5060030;28;20979;-87
2022/08/10 13:10:49;;;;;;;2.93;2.57;;;36.20;17.80;;;;;;5060504;28;20459;-87
2022/08/10 13:13:19;;;;;;;2.40;2.20;;;36.10;17.90;;;;;;5088468;28;20478;-88
2022/08/10 13:15:49;;;;;;;3.03;2.63;;;36.20;17.60;;;;;;5071382;28;20450;-87
2022/08/10 13:18:18;;;;;;;2.57;2.37;;;36.10;17.70;;;;;;5087156;28;20502;-87
2022/08/10 13:20:49;;;;;;;2.50;2.40;;;35.90;17.70;;;;;;5087288;28;20459;-88
2022/08/10 13:23:20;;;;;;;2.53;2.33;;;35.50;18.00;;;;;;5086494;28;20451;-88
2022/08/10 13:25:51;;;;;;;2.60;2.40;;;35.80;18.00;;;;;;5069066;28;20530;-87
2022/08/10 13:28:24;;;;;;;2.40;2.20;;;35.90;17.60;;;;;;5052026;28;20562;-87
2022/08/10 13:30:54;;;;;;;9.60;2.47;;;36.00;17.20;;;;;;5088434;28;20441;-87
2022/08/10 13:33:27;;;;;;;2.67;2.47;;;36.10;17.20;;;;;;5078294;28;20534;-87
2022/08/10 13:35:57;;;;;;;6.50;2.70;;;36.10;16.90;;;;;;5086332;28;20538;-88
2022/08/10 13:42:37;;;;;;;2.80;2.60;;;35.90;17.80;;;;;;5058754;28;20420;-88
2022/08/10 13:45:08;;;;;;;2.50;2.40;;;36.20;17.20;;;;;;5088354;28;20439;-87
2022/08/10 13:47:36;;;;;;;2.77;2.57;;;36.30;17.20;;;;;;5059848;28;20440;-87
2022/08/10 13:50:08;;;;;;;4.63;2.30;;;36.50;16.60;;;;;;5086827;28;20439;-87
2022/08/10 13:52:36;;;;;;;3.30;2.53;;;36.40;17.10;;;;;;5078404;28;20454;-86
2022/08/10 13:55:10;;;;;;;4.23;2.20;;;36.40;17.00;;;;;;5084307;28;20456;-86
2022/08/10 14:02:37;;;;;;;2.80;2.27;;;36.70;17.00;;;;;;5069168;28;20814;-87
2022/08/10 14:05:07;;;;;;;2.70;2.50;;;36.80;16.70;;;;;;5070610;28;20968;-89
2022/08/10 14:07:39;;;;;;;2.57;2.37;;;36.90;16.40;;;;;;5063534;28;20459;-88
2022/08/10 14:10:09;;;;;;;2.73;2.50;;;36.70;16.50;;;;;;5071643;28;20530;-87
2022/08/10 14:12:38;;;;;;;6.50;2.10;;;36.60;16.90;;;;;;5090765;28;21213;-88
2022/08/10 14:15:08;;;;;;;3.13;2.93;;;36.70;17.60;;;;;;5092631;28;20529;-89